createdAt,value
2019-03-04T00:00:00.352Z,990.1
2019-03-04T00:00:26.356Z,990.22
2019-03-04T00:00:52.460Z,990.24
2019-03-04T00:01:18.575Z,990.19
2019-03-04T00:01:44.711Z,990.15
2019-03-04T00:02:10.821Z,990.22
2019-03-04T00:02:36.929Z,990.19
2019-03-04T00:03:03.029Z,990.13
2019-03-04T00:03:29.165Z,990.13
2019-03-04T00:03:55.268Z,990.18
2019-03-04T00:04:21.382Z,990.16
2019-03-04T00:04:47.488Z,989.98
2019-03-04T00:05:13.606Z,990.26
2019-03-04T00:05:39.738Z,990.16
2019-03-04T00:06:05.844Z,990.17
2019-03-04T00:06:31.984Z,990.1
2019-03-04T00:06:58.085Z,990.14
2019-03-04T00:07:24.202Z,990.12
2019-03-04T00:07:50.303Z,990.1
2019-03-04T00:08:16.409Z,990.02
2019-03-04T00:08:43.408Z,990
2019-03-04T00:09:09.518Z,989.96
2019-03-04T00:09:35.629Z,989.96
2019-03-04T00:10:01.732Z,990
2019-03-04T00:10:27.840Z,989.91
2019-03-04T00:10:53.977Z,989.94
2019-03-04T00:11:20.086Z,990.09
2019-03-04T00:11:46.250Z,989.85
2019-03-04T00:12:12.358Z,989.89
2019-03-04T00:12:38.495Z,989.84
2019-03-04T00:13:04.595Z,989.96
2019-03-04T00:13:30.704Z,989.86
2019-03-04T00:13:56.810Z,989.98
2019-03-04T00:14:22.922Z,989.83
2019-03-04T00:14:49.027Z,989.95
2019-03-04T00:15:15.159Z,989.89
2019-03-04T00:15:41.266Z,989.99
2019-03-04T00:16:07.378Z,990.01
2019-03-04T00:16:33.479Z,989.83
2019-03-04T00:16:59.594Z,989.72
2019-03-04T00:17:25.695Z,989.64
2019-03-04T00:17:51.802Z,989.9
2019-03-04T00:18:17.912Z,989.82
2019-03-04T00:18:44.020Z,989.79
2019-03-04T00:19:10.131Z,989.97
2019-03-04T00:19:36.239Z,989.99
2019-03-04T00:20:02.338Z,989.78
2019-03-04T00:20:28.453Z,989.74
2019-03-04T00:20:54.556Z,989.91
2019-03-04T00:21:20.662Z,989.88
2019-03-04T00:21:46.770Z,989.83
2019-03-04T00:22:12.881Z,989.74
2019-03-04T00:22:38.982Z,989.79
2019-03-04T00:23:05.119Z,989.74
2019-03-04T00:23:31.229Z,989.71
2019-03-04T00:23:57.321Z,989.69
2019-03-04T00:24:23.435Z,989.72
2019-03-04T00:24:49.544Z,989.67
2019-03-04T00:25:15.653Z,989.63
2019-03-04T00:25:41.756Z,989.63
2019-03-04T00:26:07.866Z,989.58
2019-03-04T00:26:33.980Z,989.64
2019-03-04T00:27:00.094Z,989.54
2019-03-04T00:27:26.190Z,989.6
2019-03-04T00:27:52.305Z,989.52
2019-03-04T00:28:18.408Z,989.65
2019-03-04T00:28:44.583Z,989.61
2019-03-04T00:29:10.662Z,989.65
2019-03-04T00:29:36.767Z,989.67
2019-03-04T00:30:02.881Z,989.6
2019-03-04T00:30:28.986Z,989.58
2019-03-04T00:30:55.099Z,989.63
2019-03-04T00:31:21.207Z,989.63
2019-03-04T00:31:47.312Z,989.59
2019-03-04T00:32:13.419Z,989.65
2019-03-04T00:32:39.530Z,989.57
2019-03-04T00:33:06.098Z,989.53
2019-03-04T00:33:32.230Z,989.63
2019-03-04T00:33:58.340Z,989.57
2019-03-04T00:34:24.472Z,989.49
2019-03-04T00:34:50.601Z,989.6
2019-03-04T00:35:16.707Z,989.54
2019-03-04T00:35:42.815Z,989.59
2019-03-04T00:36:08.928Z,989.71
2019-03-04T00:36:35.030Z,989.52
2019-03-04T00:37:01.140Z,989.57
2019-03-04T00:37:27.251Z,989.44
2019-03-04T00:37:53.362Z,989.49
2019-03-04T00:38:19.467Z,989.32
2019-03-04T00:38:45.577Z,989.3
2019-03-04T00:39:11.680Z,989.32
2019-03-04T00:39:37.792Z,989.37
2019-03-04T00:40:03.898Z,989.35
2019-03-04T00:40:30.000Z,989.28
2019-03-04T00:40:56.102Z,989.26
2019-03-04T00:41:22.209Z,989.4
2019-03-04T00:41:48.342Z,989.31
2019-03-04T00:42:14.454Z,989.24
2019-03-04T00:42:40.555Z,989.18
2019-03-04T00:43:06.763Z,989.39
2019-03-04T00:43:32.832Z,989.4
2019-03-04T00:43:59.096Z,989.08
2019-03-04T00:44:25.304Z,989.17
2019-03-04T00:44:51.465Z,989.1
2019-03-04T00:45:18.457Z,989.13
2019-03-04T00:45:44.520Z,989.01
2019-03-04T00:46:10.627Z,989.12
2019-03-04T00:46:36.732Z,989.06
2019-03-04T00:47:02.838Z,988.88
2019-03-04T00:47:28.953Z,989.07
2019-03-04T00:47:55.056Z,989.17
2019-03-04T00:48:21.169Z,989.12
2019-03-04T00:48:47.281Z,989.08
2019-03-04T00:49:13.395Z,989.08
2019-03-04T00:49:39.551Z,988.95
2019-03-04T00:50:06.727Z,989.05
2019-03-04T00:50:32.838Z,989.04
2019-03-04T00:50:58.948Z,988.95
2019-03-04T00:51:25.042Z,988.99
2019-03-04T00:51:51.157Z,988.99
2019-03-04T00:52:17.266Z,988.86
2019-03-04T00:52:43.378Z,988.88
2019-03-04T00:53:09.482Z,988.98
2019-03-04T00:53:35.625Z,988.83
2019-03-04T00:54:01.723Z,988.84
2019-03-04T00:54:27.825Z,988.93
2019-03-04T00:54:53.942Z,988.89
2019-03-04T00:55:20.056Z,988.86
2019-03-04T00:55:46.266Z,988.82
2019-03-04T00:56:12.401Z,988.81
2019-03-04T00:56:38.503Z,988.87
2019-03-04T00:57:04.622Z,988.9
2019-03-04T00:57:30.718Z,989.03
2019-03-04T00:57:56.980Z,988.84
2019-03-04T00:58:23.084Z,988.96
2019-03-04T00:58:49.191Z,988.72
2019-03-04T00:59:15.305Z,988.81
2019-03-04T00:59:41.440Z,988.67
2019-03-04T01:00:07.547Z,988.74
2019-03-04T01:00:33.661Z,988.73
2019-03-04T01:00:59.760Z,988.73
2019-03-04T01:01:25.970Z,988.78
2019-03-04T01:01:52.076Z,988.66
2019-03-04T01:02:18.188Z,988.64
2019-03-04T01:02:44.292Z,988.7
2019-03-04T01:03:10.496Z,988.63
2019-03-04T01:03:36.621Z,988.69
2019-03-04T01:04:02.732Z,988.58
2019-03-04T01:04:28.846Z,988.61
2019-03-04T01:04:54.952Z,988.57
2019-03-04T01:05:21.047Z,988.55
2019-03-04T01:05:47.185Z,988.56
2019-03-04T01:06:13.977Z,988.43
2019-03-04T01:06:40.091Z,988.46
2019-03-04T01:07:06.195Z,988.42
2019-03-04T01:07:32.300Z,988.33
2019-03-04T01:07:58.443Z,988.34
2019-03-04T01:08:24.544Z,988.41
2019-03-04T01:08:50.656Z,988.34
2019-03-04T01:09:16.766Z,988.34
2019-03-04T01:09:42.875Z,988.42
2019-03-04T01:10:08.987Z,988.41
2019-03-04T01:10:35.114Z,988.43
2019-03-04T01:11:01.222Z,988.4
2019-03-04T01:11:27.329Z,988.41
2019-03-04T01:11:53.435Z,988.38
2019-03-04T01:12:19.536Z,988.45
2019-03-04T01:12:45.644Z,988.47
2019-03-04T01:13:11.757Z,988.33
2019-03-04T01:13:37.872Z,988.5
2019-03-04T01:14:03.977Z,988.47
2019-03-04T01:14:30.088Z,988.45
2019-03-04T01:14:56.193Z,988.3
2019-03-04T01:15:22.594Z,988.3
2019-03-04T01:15:48.430Z,988.33
2019-03-04T01:16:14.540Z,988.32
2019-03-04T01:16:40.701Z,988.33
2019-03-04T01:17:06.802Z,988.27
2019-03-04T01:17:32.913Z,988.3
2019-03-04T01:17:59.129Z,988.35
2019-03-04T01:18:25.235Z,988.34
2019-03-04T01:18:51.348Z,988.29
2019-03-04T01:19:17.459Z,988.3
2019-03-04T01:19:43.555Z,988.45
2019-03-04T01:20:09.669Z,988.36
2019-03-04T01:20:35.776Z,988.3
2019-03-04T01:21:01.883Z,988.31
2019-03-04T01:21:27.988Z,988.28
2019-03-04T01:21:54.097Z,988.43
2019-03-04T01:22:20.309Z,988.17
2019-03-04T01:22:46.498Z,988.21
2019-03-04T01:23:12.628Z,988.5
2019-03-04T01:23:38.735Z,988.23
2019-03-04T01:24:05.827Z,988.25
2019-03-04T01:24:31.945Z,988.28
2019-03-04T01:24:58.107Z,988.34
2019-03-04T01:25:24.212Z,988.27
2019-03-04T01:25:50.315Z,988.28
2019-03-04T01:26:16.428Z,988.32
2019-03-04T01:26:42.541Z,988.28
2019-03-04T01:27:08.648Z,988.29
2019-03-04T01:27:34.774Z,988.29
2019-03-04T01:28:00.897Z,988.22
2019-03-04T01:28:27.149Z,988.22
2019-03-04T01:28:53.526Z,988.3
2019-03-04T01:29:19.751Z,988.22
2019-03-04T01:29:45.921Z,988.32
2019-03-04T01:30:12.053Z,988.13
2019-03-04T01:30:38.155Z,988.18
2019-03-04T01:31:04.289Z,988.13
2019-03-04T01:31:30.394Z,988.09
2019-03-04T01:31:56.541Z,988.22
2019-03-04T01:32:22.642Z,988.14
2019-03-04T01:32:48.747Z,988.13
2019-03-04T01:33:14.858Z,988.17
2019-03-04T01:33:40.997Z,988.13
2019-03-04T01:34:07.100Z,988.11
2019-03-04T01:34:33.205Z,988.15
2019-03-04T01:34:59.315Z,988.15
2019-03-04T01:35:25.414Z,988.13
2019-03-04T01:35:51.517Z,988.13
2019-03-04T01:36:17.624Z,988.11
2019-03-04T01:36:43.732Z,988.29
2019-03-04T01:37:09.967Z,988.1
2019-03-04T01:37:36.171Z,988.18
2019-03-04T01:38:02.282Z,988.15
2019-03-04T01:38:28.382Z,988.14
2019-03-04T01:38:54.499Z,988.15
2019-03-04T01:39:20.643Z,988.02
2019-03-04T01:39:46.829Z,988.17
2019-03-04T01:40:12.935Z,988.15
2019-03-04T01:40:39.045Z,987.97
2019-03-04T01:41:05.153Z,987.98
2019-03-04T01:41:31.261Z,987.88
2019-03-04T01:41:57.368Z,988
2019-03-04T01:42:23.473Z,987.95
2019-03-04T01:42:49.587Z,987.87
2019-03-04T01:43:15.694Z,987.95
2019-03-04T01:43:41.810Z,987.88
2019-03-04T01:44:07.916Z,987.79
2019-03-04T01:44:34.020Z,987.85
2019-03-04T01:45:00.313Z,987.75
2019-03-04T01:45:26.385Z,987.82
2019-03-04T01:45:52.482Z,987.86
2019-03-04T01:46:18.588Z,987.85
2019-03-04T01:46:44.719Z,987.78
2019-03-04T01:47:11.011Z,987.76
2019-03-04T01:47:37.109Z,987.78
2019-03-04T01:48:03.288Z,987.67
2019-03-04T01:48:29.415Z,987.72
2019-03-04T01:48:55.670Z,987.67
2019-03-04T01:49:21.809Z,987.66
2019-03-04T01:49:47.925Z,987.71
2019-03-04T01:50:14.081Z,987.66
2019-03-04T01:50:40.184Z,987.67
2019-03-04T01:51:06.303Z,987.7
2019-03-04T01:51:32.552Z,987.56
2019-03-04T01:51:58.823Z,987.63
2019-03-04T01:52:25.047Z,987.63
2019-03-04T01:52:51.163Z,987.63
2019-03-04T01:53:17.266Z,987.59
2019-03-04T01:53:43.372Z,987.65
2019-03-04T01:54:09.477Z,987.54
2019-03-04T01:54:35.587Z,987.65
2019-03-04T01:55:01.701Z,987.58
2019-03-04T01:55:27.831Z,987.53
2019-03-04T01:55:53.941Z,987.43
2019-03-04T01:56:20.144Z,987.47
2019-03-04T01:56:46.274Z,987.43
2019-03-04T01:57:12.435Z,987.52
2019-03-04T01:57:38.487Z,987.52
2019-03-04T01:58:04.632Z,987.4
2019-03-04T01:58:30.734Z,987.3
2019-03-04T01:58:56.847Z,987.36
2019-03-04T01:59:22.982Z,987.32
2019-03-04T01:59:49.081Z,987.35
2019-03-04T02:00:15.192Z,987.36
2019-03-04T02:00:41.301Z,987.33
2019-03-04T02:01:07.409Z,987.36
2019-03-04T02:01:33.522Z,987.34
2019-03-04T02:01:59.655Z,987.24
2019-03-04T02:02:25.790Z,987.25
2019-03-04T02:02:51.903Z,987.23
2019-03-04T02:03:18.014Z,987.27
2019-03-04T02:03:44.117Z,987.26
2019-03-04T02:04:10.227Z,987.26
2019-03-04T02:04:36.335Z,987.12
2019-03-04T02:05:02.440Z,987.25
2019-03-04T02:05:28.552Z,987.16
2019-03-04T02:05:54.685Z,987.09
2019-03-04T02:06:20.790Z,987.15
2019-03-04T02:06:46.891Z,987.12
2019-03-04T02:07:13.007Z,987.08
2019-03-04T02:07:39.106Z,987.11
2019-03-04T02:08:05.220Z,987.09
2019-03-04T02:08:31.348Z,987.07
2019-03-04T02:08:57.509Z,987.1
2019-03-04T02:09:23.719Z,987.06
2019-03-04T02:09:49.831Z,987.17
2019-03-04T02:10:15.949Z,987.12
2019-03-04T02:10:42.057Z,987.17
2019-03-04T02:11:08.166Z,987.16
2019-03-04T02:11:34.272Z,987.22
2019-03-04T02:12:00.377Z,987.23
2019-03-04T02:12:26.490Z,987.17
2019-03-04T02:12:52.599Z,987.23
2019-03-04T02:13:18.732Z,987.14
2019-03-04T02:13:44.842Z,987.32
2019-03-04T02:14:10.980Z,987.23
2019-03-04T02:14:37.110Z,987.11
2019-03-04T02:15:03.273Z,987.22
2019-03-04T02:15:29.387Z,987.15
2019-03-04T02:15:55.498Z,987.17
2019-03-04T02:16:21.603Z,987.19
2019-03-04T02:16:47.714Z,987.11
2019-03-04T02:17:13.853Z,987.16
2019-03-04T02:17:39.955Z,987.19
2019-03-04T02:18:06.098Z,987.15
2019-03-04T02:18:32.211Z,987.06
2019-03-04T02:18:58.314Z,987.13
2019-03-04T02:19:24.422Z,987.08
2019-03-04T02:19:50.532Z,986.94
2019-03-04T02:20:16.637Z,986.96
2019-03-04T02:20:42.745Z,987
2019-03-04T02:21:08.878Z,986.94
2019-03-04T02:21:34.979Z,986.86
2019-03-04T02:22:01.089Z,986.77
2019-03-04T02:22:27.202Z,986.72
2019-03-04T02:22:53.312Z,986.64
2019-03-04T02:23:19.469Z,986.77
2019-03-04T02:23:45.609Z,986.82
2019-03-04T02:24:11.720Z,986.81
2019-03-04T02:24:37.825Z,986.8
2019-03-04T02:25:03.936Z,986.84
2019-03-04T02:25:30.034Z,986.77
2019-03-04T02:25:56.166Z,986.78
2019-03-04T02:26:22.277Z,986.83
2019-03-04T02:26:48.378Z,986.79
2019-03-04T02:27:14.489Z,986.82
2019-03-04T02:27:40.595Z,986.7
2019-03-04T02:28:06.707Z,986.7
2019-03-04T02:28:32.808Z,986.77
2019-03-04T02:28:58.920Z,986.76
2019-03-04T02:29:25.058Z,986.8
2019-03-04T02:29:51.201Z,986.71
2019-03-04T02:30:17.304Z,986.7
2019-03-04T02:30:43.418Z,986.49
2019-03-04T02:31:09.555Z,986.41
2019-03-04T02:31:35.668Z,986.47
2019-03-04T02:32:01.775Z,986.43
2019-03-04T02:32:27.915Z,986.42
2019-03-04T02:32:54.081Z,986.35
2019-03-04T02:33:20.218Z,986.32
2019-03-04T02:33:46.323Z,986.33
2019-03-04T02:34:12.428Z,986.25
2019-03-04T02:34:38.538Z,986.36
2019-03-04T02:35:04.704Z,986.33
2019-03-04T02:35:30.811Z,986.12
2019-03-04T02:35:56.919Z,986.09
2019-03-04T02:36:23.123Z,986.08
2019-03-04T02:36:49.384Z,986.1
2019-03-04T02:37:15.485Z,986.15
2019-03-04T02:37:41.599Z,986.15
2019-03-04T02:38:07.743Z,986.25
2019-03-04T02:38:33.876Z,986.21
2019-03-04T02:39:00.034Z,986.26
2019-03-04T02:39:26.139Z,986.29
2019-03-04T02:39:52.284Z,986.32
2019-03-04T02:40:18.408Z,986.39
2019-03-04T02:40:44.555Z,986.36
2019-03-04T02:41:10.663Z,986.39
2019-03-04T02:41:36.772Z,986.24
2019-03-04T02:42:02.910Z,986.37
2019-03-04T02:42:29.253Z,986.45
2019-03-04T02:42:55.456Z,986.33
2019-03-04T02:43:21.599Z,986.41
2019-03-04T02:43:47.703Z,986.52
2019-03-04T02:44:13.891Z,986.48
2019-03-04T02:44:39.994Z,986.37
2019-03-04T02:45:06.100Z,986.5
2019-03-04T02:45:32.211Z,986.56
2019-03-04T02:45:58.463Z,986.48
2019-03-04T02:46:24.558Z,986.39
2019-03-04T02:46:50.691Z,986.39
2019-03-04T02:47:16.870Z,986.61
2019-03-04T02:47:43.062Z,986.25
2019-03-04T02:48:09.199Z,986.4
2019-03-04T02:48:35.334Z,986.3
2019-03-04T02:49:01.438Z,986.25
2019-03-04T02:49:27.610Z,986.29
2019-03-04T02:49:53.715Z,986.37
2019-03-04T02:50:19.831Z,986.38
2019-03-04T02:50:45.973Z,986.38
2019-03-04T02:51:12.111Z,986.35
2019-03-04T02:51:38.214Z,986.44
2019-03-04T02:52:04.346Z,986.53
2019-03-04T02:52:30.456Z,986.38
2019-03-04T02:52:56.567Z,986.48
2019-03-04T02:53:22.756Z,986.57
2019-03-04T02:53:48.861Z,986.4
2019-03-04T02:54:14.975Z,986.33
2019-03-04T02:54:41.215Z,986.41
2019-03-04T02:55:07.394Z,986.31
2019-03-04T02:55:33.556Z,986.4
2019-03-04T02:55:59.722Z,986.27
2019-03-04T02:56:25.829Z,986.53
2019-03-04T02:56:51.936Z,986.22
2019-03-04T02:57:18.039Z,986.25
2019-03-04T02:57:44.145Z,986.18
2019-03-04T02:58:10.255Z,986.08
2019-03-04T02:58:36.361Z,986.2
2019-03-04T02:59:02.486Z,986.01
2019-03-04T02:59:28.734Z,986.13
2019-03-04T02:59:54.844Z,986.07
2019-03-04T03:00:20.966Z,985.99
2019-03-04T03:00:47.069Z,986.2
2019-03-04T03:01:13.185Z,986.05
2019-03-04T03:01:39.348Z,986
2019-03-04T03:02:05.456Z,986.09
2019-03-04T03:02:31.562Z,986.19
2019-03-04T03:02:57.730Z,986.16
2019-03-04T03:03:23.833Z,986.13
2019-03-04T03:03:49.946Z,986.06
2019-03-04T03:04:16.047Z,985.87
2019-03-04T03:04:42.180Z,985.87
2019-03-04T03:05:08.338Z,986.38
2019-03-04T03:05:34.588Z,985.98
2019-03-04T03:06:00.694Z,985.95
2019-03-04T03:06:26.820Z,986.29
2019-03-04T03:06:52.925Z,986.11
2019-03-04T03:07:19.059Z,985.97
2019-03-04T03:07:45.166Z,986.05
2019-03-04T03:08:11.307Z,986.01
2019-03-04T03:08:37.445Z,985.86
2019-03-04T03:09:03.587Z,985.88
2019-03-04T03:09:29.752Z,985.81
2019-03-04T03:09:55.873Z,985.78
2019-03-04T03:10:21.969Z,985.75
2019-03-04T03:10:48.097Z,985.85
2019-03-04T03:11:14.209Z,985.85
2019-03-04T03:11:40.312Z,985.76
2019-03-04T03:12:06.448Z,985.8
2019-03-04T03:12:32.556Z,985.68
2019-03-04T03:12:58.689Z,985.64
2019-03-04T03:13:24.799Z,985.63
2019-03-04T03:13:50.988Z,985.66
2019-03-04T03:14:17.096Z,985.72
2019-03-04T03:14:43.238Z,985.8
2019-03-04T03:15:09.513Z,985.78
2019-03-04T03:15:35.620Z,985.75
2019-03-04T03:16:01.726Z,985.79
2019-03-04T03:16:27.836Z,985.74
2019-03-04T03:16:53.941Z,985.66
2019-03-04T03:17:20.048Z,985.67
2019-03-04T03:17:46.184Z,985.71
2019-03-04T03:18:12.297Z,985.71
2019-03-04T03:18:38.406Z,985.76
2019-03-04T03:19:04.510Z,985.64
2019-03-04T03:19:30.619Z,985.67
2019-03-04T03:19:56.751Z,985.51
2019-03-04T03:20:22.880Z,985.57
2019-03-04T03:20:48.991Z,985.54
2019-03-04T03:21:15.161Z,985.58
2019-03-04T03:21:41.299Z,985.5
2019-03-04T03:22:07.435Z,985.46
2019-03-04T03:22:33.644Z,985.49
2019-03-04T03:22:59.849Z,985.42
2019-03-04T03:23:26.021Z,985.46
2019-03-04T03:23:52.124Z,985.42
2019-03-04T03:24:19.248Z,985.36
2019-03-04T03:24:45.362Z,985.32
2019-03-04T03:25:11.582Z,985.35
2019-03-04T03:25:37.694Z,985.33
2019-03-04T03:26:03.802Z,985.29
2019-03-04T03:26:29.899Z,985.37
2019-03-04T03:26:56.036Z,985.24
2019-03-04T03:27:22.175Z,985.24
2019-03-04T03:27:48.275Z,985.31
2019-03-04T03:28:14.419Z,985.15
2019-03-04T03:28:40.591Z,985.17
2019-03-04T03:29:06.699Z,985.19
2019-03-04T03:29:32.911Z,985.17
2019-03-04T03:29:59.056Z,985.12
2019-03-04T03:30:25.160Z,985.27
2019-03-04T03:30:51.266Z,985.14
2019-03-04T03:31:17.498Z,985.11
2019-03-04T03:31:43.674Z,985.06
2019-03-04T03:32:09.801Z,985.24
2019-03-04T03:32:35.967Z,985.09
2019-03-04T03:33:02.155Z,985.07
2019-03-04T03:33:28.321Z,985.07
2019-03-04T03:33:54.506Z,985.02
2019-03-04T03:34:20.652Z,985.01
2019-03-04T03:34:46.880Z,984.93
2019-03-04T03:35:14.420Z,984.92
2019-03-04T03:35:40.569Z,984.92
2019-03-04T03:36:06.670Z,984.91
2019-03-04T03:36:32.832Z,984.84
2019-03-04T03:36:59.008Z,984.83
2019-03-04T03:37:25.135Z,984.78
2019-03-04T03:37:51.249Z,984.8
2019-03-04T03:38:17.374Z,984.75
2019-03-04T03:38:43.494Z,984.66
2019-03-04T03:39:09.592Z,984.61
2019-03-04T03:39:35.701Z,984.58
2019-03-04T03:40:01.796Z,984.52
2019-03-04T03:40:27.951Z,984.42
2019-03-04T03:40:54.038Z,984.41
2019-03-04T03:41:20.161Z,984.48
2019-03-04T03:41:46.309Z,984.42
2019-03-04T03:42:12.417Z,984.33
2019-03-04T03:42:39.585Z,984.41
2019-03-04T03:43:05.876Z,984.43
2019-03-04T03:43:32.017Z,984.36
2019-03-04T03:43:58.147Z,984.36
2019-03-04T03:44:24.314Z,984.28
2019-03-04T03:44:50.523Z,984.23
2019-03-04T03:45:16.678Z,984.21
2019-03-04T03:45:42.783Z,984.15
2019-03-04T03:46:08.897Z,984.02
2019-03-04T03:46:35.002Z,983.97
2019-03-04T03:47:01.107Z,983.89
2019-03-04T03:47:27.247Z,983.89
2019-03-04T03:47:53.352Z,983.87
2019-03-04T03:48:19.490Z,983.82
2019-03-04T03:48:45.600Z,983.94
2019-03-04T03:49:11.719Z,983.91
2019-03-04T03:49:37.852Z,983.96
2019-03-04T03:50:03.988Z,984
2019-03-04T03:50:30.091Z,983.95
2019-03-04T03:50:56.215Z,984.04
2019-03-04T03:51:22.332Z,984.01
2019-03-04T03:51:48.436Z,984.04
2019-03-04T03:52:14.541Z,984.01
2019-03-04T03:52:40.683Z,984.16
2019-03-04T03:53:06.842Z,984.13
2019-03-04T03:53:32.985Z,984.18
2019-03-04T03:53:59.111Z,984.23
2019-03-04T03:54:25.232Z,984.27
2019-03-04T03:54:51.330Z,984.3
2019-03-04T03:55:17.459Z,984.31
2019-03-04T03:55:43.580Z,984.41
2019-03-04T03:56:09.689Z,984.31
2019-03-04T03:56:35.786Z,984.43
2019-03-04T03:57:01.890Z,984.42
2019-03-04T03:57:28.024Z,984.38
2019-03-04T03:57:54.129Z,984.36
2019-03-04T03:58:20.290Z,984.39
2019-03-04T03:58:46.509Z,984.4
2019-03-04T03:59:12.646Z,984.28
2019-03-04T03:59:38.788Z,984.27
2019-03-04T04:00:04.879Z,984.17
2019-03-04T04:00:30.984Z,984.19
2019-03-04T04:00:57.089Z,984
2019-03-04T04:01:23.228Z,983.98
2019-03-04T04:01:49.380Z,983.98
2019-03-04T04:02:15.605Z,983.94
2019-03-04T04:02:41.739Z,983.95
2019-03-04T04:03:07.838Z,984.03
2019-03-04T04:03:33.979Z,984.04
2019-03-04T04:04:00.094Z,984.11
2019-03-04T04:04:26.236Z,984.16
2019-03-04T04:04:52.362Z,984.14
2019-03-04T04:05:18.481Z,984.18
2019-03-04T04:05:44.610Z,984.2
2019-03-04T04:06:10.715Z,984.12
2019-03-04T04:06:36.826Z,984.26
2019-03-04T04:07:03.000Z,984.01
2019-03-04T04:07:29.129Z,984.02
2019-03-04T04:07:55.235Z,984.05
2019-03-04T04:08:21.375Z,984.05
2019-03-04T04:08:47.548Z,984.08
2019-03-04T04:09:13.702Z,984.02
2019-03-04T04:09:39.868Z,984.03
2019-03-04T04:10:05.981Z,984.01
2019-03-04T04:10:32.085Z,984.07
2019-03-04T04:10:58.190Z,983.95
2019-03-04T04:11:24.297Z,983.93
2019-03-04T04:11:50.439Z,983.98
2019-03-04T04:12:16.572Z,983.86
2019-03-04T04:12:42.709Z,983.82
2019-03-04T04:13:08.839Z,983.78
2019-03-04T04:13:34.972Z,983.75
2019-03-04T04:14:01.083Z,983.74
2019-03-04T04:14:29.270Z,983.82
2019-03-04T04:14:54.299Z,983.71
2019-03-04T04:15:20.434Z,983.77
2019-03-04T04:15:46.619Z,983.67
2019-03-04T04:16:12.753Z,983.78
2019-03-04T04:16:38.899Z,983.63
2019-03-04T04:17:05.029Z,983.59
2019-03-04T04:17:31.142Z,983.56
2019-03-04T04:17:57.253Z,983.56
2019-03-04T04:18:23.390Z,983.61
2019-03-04T04:18:49.499Z,983.49
2019-03-04T04:19:15.630Z,983.55
2019-03-04T04:19:41.747Z,983.42
2019-03-04T04:20:08.835Z,983.45
2019-03-04T04:20:34.942Z,983.39
2019-03-04T04:21:01.054Z,983.26
2019-03-04T04:21:27.214Z,983.32
2019-03-04T04:21:53.347Z,983.34
2019-03-04T04:22:19.457Z,983.34
2019-03-04T04:22:45.572Z,983.49
2019-03-04T04:23:11.783Z,983.36
2019-03-04T04:23:37.935Z,983.37
2019-03-04T04:24:04.058Z,983.36
2019-03-04T04:24:30.161Z,983.32
2019-03-04T04:24:56.273Z,983.28
2019-03-04T04:25:22.408Z,983.39
2019-03-04T04:25:48.519Z,983.42
2019-03-04T04:26:14.666Z,983.31
2019-03-04T04:26:40.770Z,983.2
2019-03-04T04:27:06.885Z,983.34
2019-03-04T04:27:33.007Z,983.29
2019-03-04T04:27:59.147Z,983.34
2019-03-04T04:28:25.283Z,983.31
2019-03-04T04:28:51.417Z,983.29
2019-03-04T04:29:17.530Z,983.25
2019-03-04T04:29:43.635Z,983.33
2019-03-04T04:30:09.730Z,983.35
2019-03-04T04:30:35.891Z,983.16
2019-03-04T04:31:01.998Z,983.13
2019-03-04T04:31:28.128Z,983.17
2019-03-04T04:31:54.381Z,983.24
2019-03-04T04:32:20.502Z,983.07
2019-03-04T04:32:46.623Z,983.04
2019-03-04T04:33:12.751Z,983.03
2019-03-04T04:33:38.857Z,983.02
2019-03-04T04:34:05.029Z,983.05
2019-03-04T04:34:31.135Z,983.1
2019-03-04T04:34:57.299Z,983.12
2019-03-04T04:35:23.439Z,983.04
2019-03-04T04:35:49.545Z,983.09
2019-03-04T04:36:15.652Z,982.91
2019-03-04T04:36:41.758Z,982.85
2019-03-04T04:37:07.862Z,982.74
2019-03-04T04:37:34.032Z,982.74
2019-03-04T04:38:00.218Z,982.83
2019-03-04T04:38:26.384Z,982.8
2019-03-04T04:38:52.490Z,982.68
2019-03-04T04:39:18.622Z,982.8
2019-03-04T04:39:44.736Z,982.66
2019-03-04T04:40:10.896Z,982.61
2019-03-04T04:40:37.029Z,982.47
2019-03-04T04:41:03.133Z,982.58
2019-03-04T04:41:29.253Z,982.44
2019-03-04T04:41:55.355Z,982.45
2019-03-04T04:42:21.488Z,982.41
2019-03-04T04:42:47.599Z,982.54
2019-03-04T04:43:13.735Z,982.43
2019-03-04T04:43:39.839Z,982.52
2019-03-04T04:44:05.981Z,982.48
2019-03-04T04:44:32.096Z,982.49
2019-03-04T04:44:58.205Z,982.51
2019-03-04T04:45:24.316Z,982.96
2019-03-04T04:45:50.424Z,982.6
2019-03-04T04:46:16.532Z,982.53
2019-03-04T04:46:42.636Z,982.84
2019-03-04T04:47:08.746Z,982.51
2019-03-04T04:47:34.856Z,982.46
2019-03-04T04:48:00.967Z,982.64
2019-03-04T04:48:27.072Z,982.44
2019-03-04T04:48:53.210Z,982.58
2019-03-04T04:49:19.321Z,982.36
2019-03-04T04:49:45.420Z,982.4
2019-03-04T04:50:11.525Z,982.4
2019-03-04T04:50:37.643Z,982.42
2019-03-04T04:51:03.766Z,982.3
2019-03-04T04:51:29.905Z,982.32
2019-03-04T04:51:56.008Z,982.25
2019-03-04T04:52:23.318Z,982.2
2019-03-04T04:52:49.214Z,982.27
2019-03-04T04:53:15.351Z,982.28
2019-03-04T04:53:41.485Z,982.3
2019-03-04T04:54:07.588Z,982.17
2019-03-04T04:54:33.699Z,982.28
2019-03-04T04:54:59.808Z,982.33
2019-03-04T04:55:25.912Z,982.29
2019-03-04T04:55:52.023Z,982.27
2019-03-04T04:56:18.168Z,982.32
2019-03-04T04:56:44.372Z,982.54
2019-03-04T04:57:10.530Z,982.32
2019-03-04T04:57:36.630Z,982.27
2019-03-04T04:58:02.732Z,982.46
2019-03-04T04:58:28.844Z,982.51
2019-03-04T04:58:54.973Z,982.31
2019-03-04T04:59:21.086Z,982.27
2019-03-04T04:59:47.219Z,982.39
2019-03-04T05:00:13.328Z,982.54
2019-03-04T05:00:40.417Z,982.57
2019-03-04T05:01:06.528Z,982.41
2019-03-04T05:01:32.633Z,982.38
2019-03-04T05:01:58.733Z,982.39
2019-03-04T05:02:24.909Z,982.49
2019-03-04T05:02:51.017Z,982.49
2019-03-04T05:03:17.125Z,982.39
2019-03-04T05:03:43.234Z,982.49
2019-03-04T05:04:09.335Z,982.03
2019-03-04T05:04:35.438Z,982.3
2019-03-04T05:05:01.552Z,982.2
2019-03-04T05:05:27.661Z,982.24
2019-03-04T05:05:53.773Z,982.77
2019-03-04T05:06:19.876Z,982.36
2019-03-04T05:06:46.041Z,982.39
2019-03-04T05:07:12.143Z,982.11
2019-03-04T05:07:38.246Z,982.51
2019-03-04T05:08:04.361Z,982.19
2019-03-04T05:08:30.481Z,982.43
2019-03-04T05:08:56.581Z,982.31
2019-03-04T05:09:22.693Z,982.32
2019-03-04T05:09:48.802Z,982.2
2019-03-04T05:10:14.903Z,982.17
2019-03-04T05:10:41.047Z,982.2
2019-03-04T05:11:07.149Z,982.21
2019-03-04T05:11:33.269Z,982.24
2019-03-04T05:11:59.811Z,982.25
2019-03-04T05:12:25.986Z,982.1
2019-03-04T05:12:52.085Z,982.22
2019-03-04T05:13:18.251Z,982.23
2019-03-04T05:13:44.351Z,982.14
2019-03-04T05:14:10.458Z,982.13
2019-03-04T05:14:36.570Z,982.08
2019-03-04T05:15:02.672Z,982.3
2019-03-04T05:15:28.776Z,982.29
2019-03-04T05:15:54.881Z,982.61
2019-03-04T05:16:20.995Z,982.07
2019-03-04T05:16:47.195Z,982.27
2019-03-04T05:17:13.334Z,982.13
2019-03-04T05:17:39.856Z,982.28
2019-03-04T05:18:06.027Z,981.96
2019-03-04T05:18:32.130Z,982.22
2019-03-04T05:18:58.240Z,982.14
2019-03-04T05:19:24.352Z,982.1
2019-03-04T05:19:50.458Z,982.15
2019-03-04T05:20:16.596Z,982.21
2019-03-04T05:20:42.719Z,982.13
2019-03-04T05:21:08.829Z,982.06
2019-03-04T05:21:34.959Z,982.07
2019-03-04T05:22:01.073Z,982.15
2019-03-04T05:22:27.173Z,982.08
2019-03-04T05:22:53.277Z,982.15
2019-03-04T05:23:19.387Z,981.97
2019-03-04T05:23:45.498Z,982.1
2019-03-04T05:24:11.709Z,982.01
2019-03-04T05:24:37.844Z,982.11
2019-03-04T05:25:04.036Z,982.05
2019-03-04T05:25:30.153Z,982.06
2019-03-04T05:25:56.276Z,982.21
2019-03-04T05:26:22.547Z,981.87
2019-03-04T05:26:48.646Z,981.9
2019-03-04T05:27:14.758Z,982.04